sensor_id;sensor_type;location;lat;lon;timestamp;pressure;altitude;pressure_sealevel;temperature;humidity
37486;BME280;23341;50.296;18.960;2024-02-14T00:01:29;48123.66;;;-144.43;100.00
37486;BME280;23341;50.296;18.960;2024-02-14T00:03:56;48115.66;;;-144.43;100.00
37486;BME280;23341;50.296;18.960;2024-02-14T00:06:25;48123.66;;;-144.43;100.00
37486;BME280;23341;50.296;18.960;2024-02-14T00:08:52;48119.66;;;-144.43;100.00
37486;BME280;23341;50.296;18.960;2024-02-14T00:11:20;48119.66;;;-144.43;100.00
37486;BME280;23341;50.296;18.960;2024-02-14T00:13:47;48103.69;;;-144.43;100.00
37486;BME280;23341;50.296;18.960;2024-02-14T00:16:16;48109.69;;;-144.43;100.00
37486;BME280;23341;50.296;18.960;2024-02-14T00:18:43;48115.66;;;-144.43;100.00
37486;BME280;23341;50.296;18.960;2024-02-14T00:21:11;48105.69;;;-144.43;100.00
37486;BME280;23341;50.296;18.960;2024-02-14T00:23:40;48123.66;;;-144.43;100.00
37486;BME280;23341;50.296;18.960;2024-02-14T00:26:08;48097.69;;;-144.43;100.00
37486;BME280;23341;50.296;18.960;2024-02-14T00:28:35;48119.66;;;-144.43;100.00
37486;BME280;23341;50.296;18.960;2024-02-14T00:31:03;48115.66;;;-144.43;100.00
37486;BME280;23341;50.296;18.960;2024-02-14T00:33:31;48097.69;;;-144.43;100.00
37486;BME280;23341;50.296;18.960;2024-02-14T00:35:58;48115.66;;;-144.43;100.00
37486;BME280;23341;50.296;18.960;2024-02-14T00:38:26;48113.69;;;-144.43;100.00
37486;BME280;23341;50.296;18.960;2024-02-14T00:40:55;48115.66;;;-144.43;100.00
37486;BME280;23341;50.296;18.960;2024-02-14T00:43:23;48115.66;;;-144.43;100.00
37486;BME280;23341;50.296;18.960;2024-02-14T00:45:51;48127.66;;;-144.43;100.00
37486;BME280;23341;50.296;18.960;2024-02-14T00:48:18;48125.66;;;-144.43;100.00
37486;BME280;23341;50.296;18.960;2024-02-14T00:50:46;48101.69;;;-144.43;100.00
37486;BME280;23341;50.296;18.960;2024-02-14T00:53:13;48111.69;;;-144.43;100.00
37486;BME280;23341;50.296;18.960;2024-02-14T00:55:41;48125.66;;;-144.43;100.00
37486;BME280;23341;50.296;18.960;2024-02-14T00:58:09;48117.66;;;-144.43;100.00
37486;BME280;23341;50.296;18.960;2024-02-14T01:00:37;48111.69;;;-144.43;100.00
37486;BME280;23341;50.296;18.960;2024-02-14T01:03:06;48089.69;;;-144.43;100.00
37486;BME280;23341;50.296;18.960;2024-02-14T01:05:34;48103.69;;;-144.43;100.00
37486;BME280;23341;50.296;18.960;2024-02-14T01:08:01;48107.69;;;-144.43;100.00
37486;BME280;23341;50.296;18.960;2024-02-14T01:10:29;48097.69;;;-144.43;100.00
37486;BME280;23341;50.296;18.960;2024-02-14T01:12:56;48133.66;;;-144.43;100.00
37486;BME280;23341;50.296;18.960;2024-02-14T01:15:25;48091.69;;;-144.43;100.00
37486;BME280;23341;50.296;18.960;2024-02-14T01:17:53;48123.66;;;-144.43;100.00
37486;BME280;23341;50.296;18.960;2024-02-14T01:20:20;48127.66;;;-144.43;100.00
37486;BME280;23341;50.296;18.960;2024-02-14T01:22:48;48105.69;;;-144.43;100.00
37486;BME280;23341;50.296;18.960;2024-02-14T01:25:15;48109.69;;;-144.43;100.00
37486;BME280;23341;50.296;18.960;2024-02-14T01:27:43;48099.69;;;-144.43;100.00
37486;BME280;23341;50.296;18.960;2024-02-14T01:30:11;48129.66;;;-144.43;100.00
37486;BME280;23341;50.296;18.960;2024-02-14T01:32:40;48111.69;;;-144.43;100.00
37486;BME280;23341;50.296;18.960;2024-02-14T01:35:08;48115.66;;;-144.43;100.00
37486;BME280;23341;50.296;18.960;2024-02-14T01:37:35;48113.69;;;-144.43;100.00
37486;BME280;23341;50.296;18.960;2024-02-14T01:40:03;48119.66;;;-144.43;100.00
37486;BME280;23341;50.296;18.960;2024-02-14T01:42:32;48099.69;;;-144.43;100.00
37486;BME280;23341;50.296;18.960;2024-02-14T01:45:00;48107.69;;;-144.43;100.00
37486;BME280;23341;50.296;18.960;2024-02-14T01:47:28;48119.66;;;-144.43;100.00
37486;BME280;23341;50.296;18.960;2024-02-14T01:50:00;48107.69;;;-144.43;100.00
37486;BME280;23341;50.296;18.960;2024-02-14T01:52:28;48101.69;;;-144.43;100.00
37486;BME280;23341;50.296;18.960;2024-02-14T01:54:55;48113.69;;;-144.43;100.00
37486;BME280;23341;50.296;18.960;2024-02-14T01:57:24;48087.69;;;-144.43;100.00
37486;BME280;23341;50.296;18.960;2024-02-14T01:59:52;48099.69;;;-144.43;100.00
37486;BME280;23341;50.296;18.960;2024-02-14T02:02:21;48119.66;;;-144.43;100.00
37486;BME280;23341;50.296;18.960;2024-02-14T02:04:49;48113.69;;;-144.43;100.00
37486;BME280;23341;50.296;18.960;2024-02-14T02:07:19;48135.66;;;-144.43;100.00
37486;BME280;23341;50.296;18.960;2024-02-14T02:09:47;48139.66;;;-144.43;100.00
37486;BME280;23341;50.296;18.960;2024-02-14T02:12:14;48081.72;;;-144.43;100.00
37486;BME280;23341;50.296;18.960;2024-02-14T02:14:44;48125.66;;;-144.43;100.00
37486;BME280;23341;50.296;18.960;2024-02-14T02:17:12;48111.69;;;-144.43;100.00
37486;BME280;23341;50.296;18.960;2024-02-14T02:19:39;48103.69;;;-144.43;100.00
37486;BME280;23341;50.296;18.960;2024-02-14T02:22:08;48095.69;;;-144.43;100.00
37486;BME280;23341;50.296;18.960;2024-02-14T02:24:37;48109.69;;;-144.43;100.00
37486;BME280;23341;50.296;18.960;2024-02-14T02:27:04;48093.69;;;-144.43;100.00
37486;BME280;23341;50.296;18.960;2024-02-14T02:29:32;48097.69;;;-144.43;100.00
37486;BME280;23341;50.296;18.960;2024-02-14T02:31:59;48111.69;;;-144.43;100.00
37486;BME280;23341;50.296;18.960;2024-02-14T02:34:27;48111.69;;;-144.43;100.00
37486;BME280;23341;50.296;18.960;2024-02-14T02:36:54;48113.69;;;-144.43;100.00
37486;BME280;23341;50.296;18.960;2024-02-14T02:39:22;48123.66;;;-144.43;100.00
37486;BME280;23341;50.296;18.960;2024-02-14T02:41:51;48101.69;;;-144.43;100.00
37486;BME280;23341;50.296;18.960;2024-02-14T02:44:21;48123.66;;;-144.43;100.00
37486;BME280;23341;50.296;18.960;2024-02-14T02:46:49;48135.66;;;-144.43;100.00
37486;BME280;23341;50.296;18.960;2024-02-14T02:49:16;48127.66;;;-144.43;100.00
37486;BME280;23341;50.296;18.960;2024-02-14T02:51:44;48105.69;;;-144.43;100.00
37486;BME280;23341;50.296;18.960;2024-02-14T02:54:12;48115.66;;;-144.43;100.00
37486;BME280;23341;50.296;18.960;2024-02-14T02:56:40;48075.72;;;-144.43;100.00
37486;BME280;23341;50.296;18.960;2024-02-14T02:59:09;48143.66;;;-144.43;100.00
37486;BME280;23341;50.296;18.960;2024-02-14T03:01:39;48117.66;;;-144.43;100.00
37486;BME280;23341;50.296;18.960;2024-02-14T03:04:07;48111.69;;;-144.43;100.00
37486;BME280;23341;50.296;18.960;2024-02-14T03:06:34;48095.69;;;-144.43;100.00
37486;BME280;23341;50.296;18.960;2024-02-14T03:09:03;48135.66;;;-144.43;100.00
37486;BME280;23341;50.296;18.960;2024-02-14T03:11:31;48115.66;;;-144.43;100.00
37486;BME280;23341;50.296;18.960;2024-02-14T03:13:59;48111.69;;;-144.43;100.00
37486;BME280;23341;50.296;18.960;2024-02-14T03:16:28;48115.66;;;-144.43;100.00
37486;BME280;23341;50.296;18.960;2024-02-14T03:18:56;48125.66;;;-144.43;100.00
37486;BME280;23341;50.296;18.960;2024-02-14T03:21:24;48077.72;;;-144.43;100.00
37486;BME280;23341;50.296;18.960;2024-02-14T03:23:53;48113.69;;;-144.43;100.00
37486;BME280;23341;50.296;18.960;2024-02-14T03:26:21;48115.66;;;-144.43;100.00
37486;BME280;23341;50.296;18.960;2024-02-14T03:28:49;48107.69;;;-144.43;100.00
37486;BME280;23341;50.296;18.960;2024-02-14T03:31:19;48081.72;;;-144.43;100.00
37486;BME280;23341;50.296;18.960;2024-02-14T03:33:48;48107.69;;;-144.43;100.00
37486;BME280;23341;50.296;18.960;2024-02-14T03:36:15;48113.69;;;-144.43;100.00
37486;BME280;23341;50.296;18.960;2024-02-14T03:38:43;48099.69;;;-144.43;100.00
37486;BME280;23341;50.296;18.960;2024-02-14T03:41:12;48099.69;;;-144.43;100.00
37486;BME280;23341;50.296;18.960;2024-02-14T03:43:40;48141.66;;;-144.43;100.00
37486;BME280;23341;50.296;18.960;2024-02-14T03:46:07;48091.69;;;-144.43;100.00
37486;BME280;23341;50.296;18.960;2024-02-14T03:48:35;48091.69;;;-144.43;100.00
37486;BME280;23341;50.296;18.960;2024-02-14T03:51:04;48131.66;;;-144.43;100.00
37486;BME280;23341;50.296;18.960;2024-02-14T03:53:32;48103.69;;;-144.43;100.00
37486;BME280;23341;50.296;18.960;2024-02-14T03:55:59;48091.69;;;-144.43;100.00
37486;BME280;23341;50.296;18.960;2024-02-14T03:58:27;48067.72;;;-144.43;100.00
37486;BME280;23341;50.296;18.960;2024-02-14T04:00:55;48089.69;;;-144.43;100.00
37486;BME280;23341;50.296;18.960;2024-02-14T04:03:22;48115.66;;;-144.43;100.00
37486;BME280;23341;50.296;18.960;2024-02-14T04:05:50;48089.69;;;-144.43;100.00
37486;BME280;23341;50.296;18.960;2024-02-14T04:08:19;48079.72;;;-144.43;100.00
37486;BME280;23341;50.296;18.960;2024-02-14T04:10:48;48091.69;;;-144.43;100.00
37486;BME280;23341;50.296;18.960;2024-02-14T04:13:17;48111.69;;;-144.43;100.00
37486;BME280;23341;50.296;18.960;2024-02-14T04:15:44;48109.69;;;-144.43;100.00
37486;BME280;23341;50.296;18.960;2024-02-14T04:18:12;48085.69;;;-144.43;100.00
37486;BME280;23341;50.296;18.960;2024-02-14T04:20:40;48095.69;;;-144.43;100.00
37486;BME280;23341;50.296;18.960;2024-02-14T04:23:10;48107.69;;;-144.43;100.00
37486;BME280;23341;50.296;18.960;2024-02-14T04:25:38;48091.69;;;-144.43;100.00
37486;BME280;23341;50.296;18.960;2024-02-14T04:28:06;48119.66;;;-144.43;100.00
37486;BME280;23341;50.296;18.960;2024-02-14T04:30:34;48095.69;;;-144.43;100.00
37486;BME280;23341;50.296;18.960;2024-02-14T04:33:02;48121.66;;;-144.43;100.00
37486;BME280;23341;50.296;18.960;2024-02-14T04:35:30;48085.69;;;-144.43;100.00
37486;BME280;23341;50.296;18.960;2024-02-14T04:37:58;48127.66;;;-144.43;100.00
37486;BME280;23341;50.296;18.960;2024-02-14T04:40:25;48091.69;;;-144.43;100.00
37486;BME280;23341;50.296;18.960;2024-02-14T04:42:54;48083.72;;;-144.43;100.00
37486;BME280;23341;50.296;18.960;2024-02-14T04:45:22;48099.69;;;-144.43;100.00
37486;BME280;23341;50.296;18.960;2024-02-14T04:47:49;48091.69;;;-144.43;100.00
37486;BME280;23341;50.296;18.960;2024-02-14T04:50:17;48113.69;;;-144.43;100.00
37486;BME280;23341;50.296;18.960;2024-02-14T04:52:45;48093.69;;;-144.43;100.00
37486;BME280;23341;50.296;18.960;2024-02-14T04:55:12;48097.69;;;-144.43;100.00
37486;BME280;23341;50.296;18.960;2024-02-14T04:57:40;48117.66;;;-144.43;100.00
37486;BME280;23341;50.296;18.960;2024-02-14T05:00:10;48115.66;;;-144.43;100.00
37486;BME280;23341;50.296;18.960;2024-02-14T05:02:39;48081.72;;;-144.43;100.00
37486;BME280;23341;50.296;18.960;2024-02-14T05:05:07;48117.66;;;-144.43;100.00
37486;BME280;23341;50.296;18.960;2024-02-14T05:07:35;48079.72;;;-144.43;100.00
37486;BME280;23341;50.296;18.960;2024-02-14T05:10:03;48111.69;;;-144.43;100.00
37486;BME280;23341;50.296;18.960;2024-02-14T05:12:34;48097.69;;;-144.43;100.00
37486;BME280;23341;50.296;18.960;2024-02-14T05:15:01;48089.69;;;-144.43;100.00
37486;BME280;23341;50.296;18.960;2024-02-14T05:17:30;48073.72;;;-144.43;100.00
37486;BME280;23341;50.296;18.960;2024-02-14T05:19:57;48077.72;;;-144.43;100.00
37486;BME280;23341;50.296;18.960;2024-02-14T05:22:25;48101.69;;;-144.43;100.00
37486;BME280;23341;50.296;18.960;2024-02-14T05:24:53;48111.69;;;-144.43;100.00
37486;BME280;23341;50.296;18.960;2024-02-14T05:27:21;48093.69;;;-144.43;100.00
37486;BME280;23341;50.296;18.960;2024-02-14T05:29:48;48079.72;;;-144.43;100.00
37486;BME280;23341;50.296;18.960;2024-02-14T05:32:16;48069.72;;;-144.43;100.00
37486;BME280;23341;50.296;18.960;2024-02-14T05:34:45;48083.72;;;-144.43;100.00
37486;BME280;23341;50.296;18.960;2024-02-14T05:37:12;48087.69;;;-144.43;100.00
37486;BME280;23341;50.296;18.960;2024-02-14T05:39:40;48113.69;;;-144.43;100.00
37486;BME280;23341;50.296;18.960;2024-02-14T05:42:08;48109.69;;;-144.43;100.00
37486;BME280;23341;50.296;18.960;2024-02-14T05:44:35;48069.72;;;-144.43;100.00
37486;BME280;23341;50.296;18.960;2024-02-14T05:47:03;48081.72;;;-144.43;100.00
37486;BME280;23341;50.296;18.960;2024-02-14T05:49:31;48077.72;;;-144.43;100.00
37486;BME280;23341;50.296;18.960;2024-02-14T05:52:00;48091.69;;;-144.43;100.00
37486;BME280;23341;50.296;18.960;2024-02-14T05:54:27;48085.69;;;-144.43;100.00
37486;BME280;23341;50.296;18.960;2024-02-14T05:56:55;48083.72;;;-144.43;100.00
37486;BME280;23341;50.296;18.960;2024-02-14T05:59:23;48103.69;;;-144.43;100.00
37486;BME280;23341;50.296;18.960;2024-02-14T06:01:51;48093.69;;;-144.43;100.00
37486;BME280;23341;50.296;18.960;2024-02-14T06:04:19;48095.69;;;-144.43;100.00
37486;BME280;23341;50.296;18.960;2024-02-14T06:06:46;48055.72;;;-144.43;100.00
37486;BME280;23341;50.296;18.960;2024-02-14T06:09:15;48131.66;;;-144.43;100.00
37486;BME280;23341;50.296;18.960;2024-02-14T06:11:43;48083.72;;;-144.43;100.00
37486;BME280;23341;50.296;18.960;2024-02-14T06:14:11;48091.69;;;-144.43;100.00
37486;BME280;23341;50.296;18.960;2024-02-14T06:16:38;48081.72;;;-144.43;100.00
37486;BME280;23341;50.296;18.960;2024-02-14T06:19:05;48093.69;;;-144.43;100.00
37486;BME280;23341;50.296;18.960;2024-02-14T06:21:33;48103.69;;;-144.43;100.00
37486;BME280;23341;50.296;18.960;2024-02-14T06:24:01;48103.69;;;-144.43;100.00
37486;BME280;23341;50.296;18.960;2024-02-14T06:26:31;48111.69;;;-144.43;100.00
37486;BME280;23341;50.296;18.960;2024-02-14T06:28:59;48059.72;;;-144.43;100.00
37486;BME280;23341;50.296;18.960;2024-02-14T06:31:27;48067.72;;;-144.43;100.00
37486;BME280;23341;50.296;18.960;2024-02-14T06:33:54;48107.69;;;-144.43;100.00
37486;BME280;23341;50.296;18.960;2024-02-14T06:36:22;48097.69;;;-144.43;100.00
37486;BME280;23341;50.296;18.960;2024-02-14T06:38:49;48075.72;;;-144.43;100.00
37486;BME280;23341;50.296;18.960;2024-02-14T06:41:17;48127.66;;;-144.43;100.00
37486;BME280;23341;50.296;18.960;2024-02-14T06:43:47;48079.72;;;-144.43;100.00
37486;BME280;23341;50.296;18.960;2024-02-14T06:46:15;48079.72;;;-144.43;100.00
37486;BME280;23341;50.296;18.960;2024-02-14T06:48:42;48079.72;;;-144.43;100.00
37486;BME280;23341;50.296;18.960;2024-02-14T06:51:10;48113.69;;;-144.43;100.00
37486;BME280;23341;50.296;18.960;2024-02-14T06:53:37;48093.69;;;-144.43;100.00
37486;BME280;23341;50.296;18.960;2024-02-14T06:56:06;48083.72;;;-144.43;100.00
37486;BME280;23341;50.296;18.960;2024-02-14T06:58:33;48069.72;;;-144.43;100.00
37486;BME280;23341;50.296;18.960;2024-02-14T07:01:02;48067.72;;;-144.43;100.00
37486;BME280;23341;50.296;18.960;2024-02-14T07:03:30;48083.72;;;-144.43;100.00
37486;BME280;23341;50.296;18.960;2024-02-14T07:05:58;48071.72;;;-144.43;100.00
37486;BME280;23341;50.296;18.960;2024-02-14T07:08:26;48081.72;;;-144.43;100.00
37486;BME280;23341;50.296;18.960;2024-02-14T07:10:54;48115.66;;;-144.43;100.00
37486;BME280;23341;50.296;18.960;2024-02-14T07:13:22;48095.69;;;-144.43;100.00
37486;BME280;23341;50.296;18.960;2024-02-14T07:15:50;48101.69;;;-144.43;100.00
37486;BME280;23341;50.296;18.960;2024-02-14T07:18:19;48115.66;;;-144.43;100.00
37486;BME280;23341;50.296;18.960;2024-02-14T07:20:46;48073.72;;;-144.43;100.00
37486;BME280;23341;50.296;18.960;2024-02-14T07:23:14;48131.66;;;-144.43;100.00
37486;BME280;23341;50.296;18.960;2024-02-14T07:25:41;48119.66;;;-144.43;100.00
37486;BME280;23341;50.296;18.960;2024-02-14T07:28:09;48135.66;;;-144.43;100.00
37486;BME280;23341;50.296;18.960;2024-02-14T07:30:37;48109.69;;;-144.43;100.00
37486;BME280;23341;50.296;18.960;2024-02-14T07:33:04;48147.63;;;-144.43;100.00
37486;BME280;23341;50.296;18.960;2024-02-14T07:35:33;48135.66;;;-144.43;100.00
37486;BME280;23341;50.296;18.960;2024-02-14T07:38:01;48143.66;;;-144.43;100.00
37486;BME280;23341;50.296;18.960;2024-02-14T07:40:28;48121.66;;;-144.43;100.00
37486;BME280;23341;50.296;18.960;2024-02-14T07:42:57;48171.63;;;-144.43;100.00
37486;BME280;23341;50.296;18.960;2024-02-14T07:45:24;48135.66;;;-144.43;100.00
37486;BME280;23341;50.296;18.960;2024-02-14T07:47:52;48139.66;;;-144.43;100.00
37486;BME280;23341;50.296;18.960;2024-02-14T07:50:20;48121.66;;;-144.43;100.00
37486;BME280;23341;50.296;18.960;2024-02-14T07:52:48;48145.66;;;-144.43;100.00
37486;BME280;23341;50.296;18.960;2024-02-14T07:55:16;48161.63;;;-144.43;100.00
37486;BME280;23341;50.296;18.960;2024-02-14T07:57:44;48143.66;;;-144.43;100.00
37486;BME280;23341;50.296;18.960;2024-02-14T08:00:13;48107.69;;;-144.43;100.00
37486;BME280;23341;50.296;18.960;2024-02-14T08:02:45;48115.66;;;-144.43;100.00
37486;BME280;23341;50.296;18.960;2024-02-14T08:05:12;48143.66;;;-144.43;100.00
37486;BME280;23341;50.296;18.960;2024-02-14T08:07:40;48125.66;;;-144.43;100.00
37486;BME280;23341;50.296;18.960;2024-02-14T08:10:09;48133.66;;;-144.43;100.00
37486;BME280;23341;50.296;18.960;2024-02-14T08:12:37;48163.63;;;-144.43;100.00
37486;BME280;23341;50.296;18.960;2024-02-14T08:15:05;48127.66;;;-144.43;100.00
37486;BME280;23341;50.296;18.960;2024-02-14T08:17:32;48129.66;;;-144.43;100.00
37486;BME280;23341;50.296;18.960;2024-02-14T08:20:01;48123.66;;;-144.43;100.00
37486;BME280;23341;50.296;18.960;2024-02-14T08:22:29;48115.66;;;-144.43;100.00
37486;BME280;23341;50.296;18.960;2024-02-14T08:24:57;48123.66;;;-144.43;100.00
37486;BME280;23341;50.296;18.960;2024-02-14T08:27:26;48115.66;;;-144.43;100.00
37486;BME280;23341;50.296;18.960;2024-02-14T08:29:54;48135.66;;;-144.43;100.00
37486;BME280;23341;50.296;18.960;2024-02-14T08:32:22;48147.63;;;-144.43;100.00
37486;BME280;23341;50.296;18.960;2024-02-14T08:34:50;48117.66;;;-144.43;100.00
37486;BME280;23341;50.296;18.960;2024-02-14T08:37:17;48147.63;;;-144.43;100.00
37486;BME280;23341;50.296;18.960;2024-02-14T08:39:45;48151.63;;;-144.43;100.00
37486;BME280;23341;50.296;18.960;2024-02-14T08:42:12;48145.66;;;-144.43;100.00
37486;BME280;23341;50.296;18.960;2024-02-14T08:44:41;48165.63;;;-144.43;100.00
37486;BME280;23341;50.296;18.960;2024-02-14T08:47:09;48125.66;;;-144.43;100.00
37486;BME280;23341;50.296;18.960;2024-02-14T08:49:36;48137.66;;;-144.43;100.00
37486;BME280;23341;50.296;18.960;2024-02-14T08:52:07;48135.66;;;-144.43;100.00
37486;BME280;23341;50.296;18.960;2024-02-14T08:54:35;48143.66;;;-144.43;100.00
37486;BME280;23341;50.296;18.960;2024-02-14T08:57:03;48143.66;;;-144.43;97.57
37486;BME280;23341;50.296;18.960;2024-02-14T08:59:31;48139.66;;;-144.43;99.35
37486;BME280;23341;50.296;18.960;2024-02-14T09:01:59;48113.69;;;-144.43;95.80
37486;BME280;23341;50.296;18.960;2024-02-14T09:04:28;48133.66;;;-144.43;99.02
37486;BME280;23341;50.296;18.960;2024-02-14T09:06:55;48141.66;;;-144.43;100.00
37486;BME280;23341;50.296;18.960;2024-02-14T09:09:23;48143.66;;;-144.43;100.00
37486;BME280;23341;50.296;18.960;2024-02-14T09:11:50;48145.66;;;-144.43;98.55
37486;BME280;23341;50.296;18.960;2024-02-14T09:14:18;48171.63;;;-144.43;94.67
37486;BME280;23341;50.296;18.960;2024-02-14T09:16:46;48119.66;;;-144.43;95.45
37486;BME280;23341;50.296;18.960;2024-02-14T09:19:15;48173.63;;;-144.43;95.48
37486;BME280;23341;50.296;18.960;2024-02-14T09:21:42;48163.63;;;-144.43;95.79
37486;BME280;23341;50.296;18.960;2024-02-14T09:24:10;48175.63;;;-144.43;94.81
37486;BME280;23341;50.296;18.960;2024-02-14T09:26:38;48131.66;;;-144.43;95.51
37486;BME280;23341;50.296;18.960;2024-02-14T09:29:06;48155.63;;;-144.43;94.92
37486;BME280;23341;50.296;18.960;2024-02-14T09:31:33;48141.66;;;-144.43;92.18
37486;BME280;23341;50.296;18.960;2024-02-14T09:34:01;48165.63;;;-144.43;84.29
37486;BME280;23341;50.296;18.960;2024-02-14T09:36:30;48171.63;;;-144.43;83.66
37486;BME280;23341;50.296;18.960;2024-02-14T09:38:58;48159.63;;;-144.43;79.61
37486;BME280;23341;50.296;18.960;2024-02-14T09:41:30;48177.63;;;-144.43;83.86
37486;BME280;23341;50.296;18.960;2024-02-14T09:43:59;48175.63;;;-144.43;80.94
37486;BME280;23341;50.296;18.960;2024-02-14T09:46:27;48139.66;;;-144.43;81.87
37486;BME280;23341;50.296;18.960;2024-02-14T09:48:58;48157.63;;;-144.43;81.95
37486;BME280;23341;50.296;18.960;2024-02-14T09:51:26;48165.63;;;-144.43;81.51
37486;BME280;23341;50.296;18.960;2024-02-14T09:53:55;48159.63;;;-144.43;81.20
37486;BME280;23341;50.296;18.960;2024-02-14T09:56:24;48159.63;;;-144.43;78.71
37486;BME280;23341;50.296;18.960;2024-02-14T09:58:53;48163.63;;;-144.43;77.60
37486;BME280;23341;50.296;18.960;2024-02-14T10:01:22;48159.63;;;-144.43;80.31
37486;BME280;23341;50.296;18.960;2024-02-14T10:03:50;48151.63;;;-144.43;76.32
37486;BME280;23341;50.296;18.960;2024-02-14T10:06:18;48163.63;;;-144.43;77.71
37486;BME280;23341;50.296;18.960;2024-02-14T10:08:47;48165.63;;;-144.43;78.05
37486;BME280;23341;50.296;18.960;2024-02-14T10:11:16;48151.63;;;-144.43;78.41
37486;BME280;23341;50.296;18.960;2024-02-14T10:13:44;48161.63;;;-144.43;79.26
37486;BME280;23341;50.296;18.960;2024-02-14T10:16:13;48159.63;;;-144.43;77.96
37486;BME280;23341;50.296;18.960;2024-02-14T10:18:41;48167.63;;;-144.43;76.46
37486;BME280;23341;50.296;18.960;2024-02-14T10:21:14;48155.63;;;-144.43;77.62
37486;BME280;23341;50.296;18.960;2024-02-14T10:23:43;48167.63;;;-144.43;76.25
37486;BME280;23341;50.296;18.960;2024-02-14T10:26:11;48195.59;;;-144.43;75.00
37486;BME280;23341;50.296;18.960;2024-02-14T10:28:42;48149.63;;;-144.43;73.99
37486;BME280;23341;50.296;18.960;2024-02-14T10:31:10;48171.63;;;-144.43;73.29
37486;BME280;23341;50.296;18.960;2024-02-14T10:33:39;48167.63;;;-144.43;74.29
37486;BME280;23341;50.296;18.960;2024-02-14T10:36:07;48157.63;;;-144.43;71.50
37486;BME280;23341;50.296;18.960;2024-02-14T10:38:36;48161.63;;;-144.43;72.19
37486;BME280;23341;50.296;18.960;2024-02-14T10:41:05;48159.63;;;-144.43;73.94
37486;BME280;23341;50.296;18.960;2024-02-14T10:43:33;48155.63;;;-144.43;73.58
37486;BME280;23341;50.296;18.960;2024-02-14T10:46:07;48151.63;;;-144.43;75.73
37486;BME280;23341;50.296;18.960;2024-02-14T10:48:37;48143.66;;;-144.43;74.30
37486;BME280;23341;50.296;18.960;2024-02-14T10:51:05;48159.63;;;-144.43;70.82
37486;BME280;23341;50.296;18.960;2024-02-14T10:53:39;48147.63;;;-144.43;72.84
37486;BME280;23341;50.296;18.960;2024-02-14T10:56:08;48201.59;;;-144.43;74.00
37486;BME280;23341;50.296;18.960;2024-02-14T10:58:37;48157.63;;;-144.43;75.31
37486;BME280;23341;50.296;18.960;2024-02-14T11:01:06;48179.59;;;-144.43;72.38
37486;BME280;23341;50.296;18.960;2024-02-14T11:03:35;48183.59;;;-144.43;69.24
37486;BME280;23341;50.296;18.960;2024-02-14T11:06:03;48175.63;;;-144.43;66.35
37486;BME280;23341;50.296;18.960;2024-02-14T11:08:32;48155.63;;;-144.43;68.11
37486;BME280;23341;50.296;18.960;2024-02-14T11:11:01;48135.66;;;-144.43;69.16
37486;BME280;23341;50.296;18.960;2024-02-14T11:13:29;48181.59;;;-144.43;70.17
37486;BME280;23341;50.296;18.960;2024-02-14T11:15:59;48187.59;;;-144.43;68.12
37486;BME280;23341;50.296;18.960;2024-02-14T11:18:29;48187.59;;;-144.43;65.50
37486;BME280;23341;50.296;18.960;2024-02-14T11:20:57;48185.59;;;-144.43;65.85
37486;BME280;23341;50.296;18.960;2024-02-14T11:23:25;48145.66;;;-144.43;66.10
37486;BME280;23341;50.296;18.960;2024-02-14T11:25:59;48157.63;;;-144.43;67.19
37486;BME280;23341;50.296;18.960;2024-02-14T11:28:28;48167.63;;;-144.43;67.96
37486;BME280;23341;50.296;18.960;2024-02-14T11:31:00;48159.63;;;-144.43;67.06
37486;BME280;23341;50.296;18.960;2024-02-14T11:33:31;48179.59;;;-144.43;65.50
37486;BME280;23341;50.296;18.960;2024-02-14T11:36:07;48189.59;;;-144.43;65.97
37486;BME280;23341;50.296;18.960;2024-02-14T11:38:36;48193.59;;;-144.43;64.89
37486;BME280;23341;50.296;18.960;2024-02-14T11:41:04;48195.59;;;-144.43;64.09
37486;BME280;23341;50.296;18.960;2024-02-14T11:43:33;48163.63;;;-144.43;62.69
37486;BME280;23341;50.296;18.960;2024-02-14T11:46:00;48161.63;;;-144.43;64.29
37486;BME280;23341;50.296;18.960;2024-02-14T11:48:32;48189.59;;;-144.43;65.70
37486;BME280;23341;50.296;18.960;2024-02-14T11:50:59;48195.59;;;-144.43;66.03
37486;BME280;23341;50.296;18.960;2024-02-14T11:53:27;48183.59;;;-144.43;66.14
37486;BME280;23341;50.296;18.960;2024-02-14T11:55:55;48191.59;;;-144.43;65.91
37486;BME280;23341;50.296;18.960;2024-02-14T11:58:23;48195.59;;;-144.43;64.26
37486;BME280;23341;50.296;18.960;2024-02-14T12:00:51;48191.59;;;-144.43;63.91
37486;BME280;23341;50.296;18.960;2024-02-14T12:03:21;48171.63;;;-144.43;64.25
37486;BME280;23341;50.296;18.960;2024-02-14T12:05:52;48181.59;;;-144.43;67.81
37486;BME280;23341;50.296;18.960;2024-02-14T12:08:21;48163.63;;;-144.43;68.32
37486;BME280;23341;50.296;18.960;2024-02-14T12:10:49;48181.59;;;-144.43;69.19
37486;BME280;23341;50.296;18.960;2024-02-14T12:13:19;48159.63;;;-144.43;67.64
37486;BME280;23341;50.296;18.960;2024-02-14T12:15:48;48165.63;;;-144.43;68.89
37486;BME280;23341;50.296;18.960;2024-02-14T12:18:19;48187.59;;;-144.43;69.90
37486;BME280;23341;50.296;18.960;2024-02-14T12:20:47;48153.63;;;-144.43;69.53
37486;BME280;23341;50.296;18.960;2024-02-14T12:23:18;48153.63;;;-144.43;67.68
37486;BME280;23341;50.296;18.960;2024-02-14T12:25:46;48173.63;;;-144.43;68.69
37486;BME280;23341;50.296;18.960;2024-02-14T12:28:15;48201.59;;;-144.43;66.07